Аэропорт: Кривой Рог. Кривой Рог

ICAO: UKDR

METAR:
2021-04-21 19:00:00
UKDR 211900Z 21003MPS CAVOK 08/04 Q1016 R36/09//70 NOSIG
METAR:
2021-04-21 17:08:00
TAF UKDR 211708Z 2118/2218 22002MPS 9999 BKN020 TX16/2212Z TN05/2202Z TEMPO 2121/2206 2500 BR BKN008 TEMPO 2208/2217 20005G10MPS 2200 -SHRA BKN007 BKN015CB